sensor_id;sensor_type;location;lat;lon;timestamp;pressure;altitude;pressure_sealevel;temperature;humidity
59951;BME280;45812;53.540;9.774;2023-05-25T00:01:36;102479.66;;;10.59;100.00
59951;BME280;45812;53.540;9.774;2023-05-25T00:04:02;102484.25;;;10.57;100.00
59951;BME280;45812;53.540;9.774;2023-05-25T00:06:28;102481.25;;;10.51;100.00
59951;BME280;45812;53.540;9.774;2023-05-25T00:08:54;102475.69;;;10.43;100.00
59951;BME280;45812;53.540;9.774;2023-05-25T00:11:24;102493.50;;;10.42;100.00
59951;BME280;45812;53.540;9.774;2023-05-25T00:13:50;102489.22;;;10.40;100.00
59951;BME280;45812;53.540;9.774;2023-05-25T00:16:16;102492.38;;;10.34;100.00
59951;BME280;45812;53.540;9.774;2023-05-25T00:18:41;102500.13;;;10.25;100.00
59951;BME280;45812;53.540;9.774;2023-05-25T00:21:07;102501.50;;;10.18;100.00
59951;BME280;45812;53.540;9.774;2023-05-25T00:23:32;102494.13;;;10.11;100.00
59951;BME280;45812;53.540;9.774;2023-05-25T00:25:58;102486.41;;;10.08;100.00
59951;BME280;45812;53.540;9.774;2023-05-25T00:28:23;102484.06;;;10.03;100.00
59951;BME280;45812;53.540;9.774;2023-05-25T00:30:49;102481.88;;;9.97;100.00
59951;BME280;45812;53.540;9.774;2023-05-25T00:33:14;102477.53;;;9.96;100.00
59951;BME280;45812;53.540;9.774;2023-05-25T00:35:41;102480.44;;;9.93;100.00
59951;BME280;45812;53.540;9.774;2023-05-25T00:38:15;102491.31;;;9.90;100.00
59951;BME280;45812;53.540;9.774;2023-05-25T00:40:40;102489.84;;;9.86;100.00
59951;BME280;45812;53.540;9.774;2023-05-25T00:43:07;102491.88;;;9.82;100.00
59951;BME280;45812;53.540;9.774;2023-05-25T00:45:33;102487.63;;;9.80;100.00
59951;BME280;45812;53.540;9.774;2023-05-25T00:47:59;102494.03;;;9.77;100.00
59951;BME280;45812;53.540;9.774;2023-05-25T00:50:43;102489.81;;;9.75;100.00
59951;BME280;45812;53.540;9.774;2023-05-25T00:53:10;102494.50;;;9.71;100.00
59951;BME280;45812;53.540;9.774;2023-05-25T00:55:43;102486.66;;;9.69;100.00
59951;BME280;45812;53.540;9.774;2023-05-25T00:58:10;102494.94;;;9.65;100.00
59951;BME280;45812;53.540;9.774;2023-05-25T01:00:40;102487.09;;;9.63;100.00
59951;BME280;45812;53.540;9.774;2023-05-25T01:03:11;102497.72;;;9.63;100.00
59951;BME280;45812;53.540;9.774;2023-05-25T01:05:44;102489.03;;;9.61;100.00
59951;BME280;45812;53.540;9.774;2023-05-25T01:08:10;102495.31;;;9.60;100.00
59951;BME280;45812;53.540;9.774;2023-05-25T01:10:37;102483.94;;;9.58;100.00
59951;BME280;45812;53.540;9.774;2023-05-25T01:13:03;102473.78;;;9.52;100.00
59951;BME280;45812;53.540;9.774;2023-05-25T01:15:31;102484.41;;;9.52;100.00
59951;BME280;45812;53.540;9.774;2023-05-25T01:17:57;102481.22;;;9.47;100.00
59951;BME280;45812;53.540;9.774;2023-05-25T01:20:26;102490.63;;;9.40;100.00
59951;BME280;45812;53.540;9.774;2023-05-25T01:23:11;102490.38;;;9.32;100.00
59951;BME280;45812;53.540;9.774;2023-05-25T01:25:46;102487.91;;;9.29;100.00
59951;BME280;45812;53.540;9.774;2023-05-25T01:28:22;102487.28;;;9.25;100.00
59951;BME280;45812;53.540;9.774;2023-05-25T01:30:49;102488.13;;;9.26;100.00
59951;BME280;45812;53.540;9.774;2023-05-25T01:33:17;102498.03;;;9.24;100.00
59951;BME280;45812;53.540;9.774;2023-05-25T01:35:43;102491.03;;;9.23;100.00
59951;BME280;45812;53.540;9.774;2023-05-25T01:38:09;102500.06;;;9.20;100.00
59951;BME280;45812;53.540;9.774;2023-05-25T01:40:34;102495.72;;;9.19;100.00
59951;BME280;45812;53.540;9.774;2023-05-25T01:43:00;102491.47;;;9.17;100.00
59951;BME280;45812;53.540;9.774;2023-05-25T01:45:25;102487.13;;;9.16;100.00
59951;BME280;45812;53.540;9.774;2023-05-25T01:48:19;102491.81;;;9.12;100.00
59951;BME280;45812;53.540;9.774;2023-05-25T01:50:59;102493.00;;;9.08;100.00
59951;BME280;45812;53.540;9.774;2023-05-25T01:53:31;102489.59;;;9.06;100.00
59951;BME280;45812;53.540;9.774;2023-05-25T01:56:00;102497.78;;;9.03;100.00
59951;BME280;45812;53.540;9.774;2023-05-25T01:58:27;102495.47;;;8.98;100.00
59951;BME280;45812;53.540;9.774;2023-05-25T02:00:57;102487.75;;;8.95;100.00
59951;BME280;45812;53.540;9.774;2023-05-25T02:03:23;102488.69;;;8.94;100.00
59951;BME280;45812;53.540;9.774;2023-05-25T02:05:48;102490.28;;;8.97;100.00
59951;BME280;45812;53.540;9.774;2023-05-25T02:08:13;102489.09;;;9.01;100.00
59951;BME280;45812;53.540;9.774;2023-05-25T02:10:39;102489.31;;;8.98;100.00
59951;BME280;45812;53.540;9.774;2023-05-25T02:13:04;102481.78;;;8.92;100.00
59951;BME280;45812;53.540;9.774;2023-05-25T02:15:31;102486.66;;;8.98;100.00
59951;BME280;45812;53.540;9.774;2023-05-25T02:17:56;102488.88;;;9.04;100.00
59951;BME280;45812;53.540;9.774;2023-05-25T02:20:24;102490.31;;;9.08;100.00
59951;BME280;45812;53.540;9.774;2023-05-25T02:22:49;102485.66;;;9.12;100.00
59951;BME280;45812;53.540;9.774;2023-05-25T02:25:14;102488.22;;;9.13;100.00
59951;BME280;45812;53.540;9.774;2023-05-25T02:27:39;102494.78;;;9.07;100.00
59951;BME280;45812;53.540;9.774;2023-05-25T02:30:05;102480.50;;;8.97;100.00
59951;BME280;45812;53.540;9.774;2023-05-25T02:32:31;102489.75;;;8.92;100.00
59951;BME280;45812;53.540;9.774;2023-05-25T02:34:57;102491.78;;;8.88;100.00
59951;BME280;45812;53.540;9.774;2023-05-25T02:37:22;102487.66;;;8.84;100.00
59951;BME280;45812;53.540;9.774;2023-05-25T02:39:48;102493.19;;;8.81;100.00
59951;BME280;45812;53.540;9.774;2023-05-25T02:42:13;102488.00;;;8.79;100.00
59951;BME280;45812;53.540;9.774;2023-05-25T02:44:38;102493.53;;;8.76;100.00
59951;BME280;45812;53.540;9.774;2023-05-25T02:47:04;102498.19;;;8.73;100.00
59951;BME280;45812;53.540;9.774;2023-05-25T02:49:30;102500.09;;;8.71;100.00
59951;BME280;45812;53.540;9.774;2023-05-25T02:51:58;102497.56;;;8.69;100.00
59951;BME280;45812;53.540;9.774;2023-05-25T02:54:23;102491.28;;;8.70;100.00
59951;BME280;45812;53.540;9.774;2023-05-25T02:56:49;102502.09;;;8.80;100.00
59951;BME280;45812;53.540;9.774;2023-05-25T02:59:14;102505.78;;;8.90;100.00
59951;BME280;45812;53.540;9.774;2023-05-25T03:01:39;102501.41;;;9.02;100.00
59951;BME280;45812;53.540;9.774;2023-05-25T03:04:05;102506.81;;;9.13;100.00
59951;BME280;45812;53.540;9.774;2023-05-25T03:06:31;102505.16;;;9.23;100.00
59951;BME280;45812;53.540;9.774;2023-05-25T03:08:57;102510.66;;;9.33;100.00
59951;BME280;45812;53.540;9.774;2023-05-25T03:11:22;102516.25;;;9.41;100.00
59951;BME280;45812;53.540;9.774;2023-05-25T03:13:47;102516.75;;;9.46;100.00
59951;BME280;45812;53.540;9.774;2023-05-25T03:16:13;102511.72;;;9.54;100.00
59951;BME280;45812;53.540;9.774;2023-05-25T03:18:38;102515.38;;;9.64;100.00
59951;BME280;45812;53.540;9.774;2023-05-25T03:21:03;102523.03;;;9.69;100.00
59951;BME280;45812;53.540;9.774;2023-05-25T03:23:29;102515.19;;;9.79;100.00
59951;BME280;45812;53.540;9.774;2023-05-25T03:25:54;102517.00;;;9.78;100.00
59951;BME280;45812;53.540;9.774;2023-05-25T03:28:19;102524.13;;;9.78;100.00
59951;BME280;45812;53.540;9.774;2023-05-25T03:30:44;102531.38;;;9.76;100.00
59951;BME280;45812;53.540;9.774;2023-05-25T03:33:10;102523.03;;;9.69;100.00
59951;BME280;45812;53.540;9.774;2023-05-25T03:35:37;102534.53;;;9.69;100.00
59951;BME280;45812;53.540;9.774;2023-05-25T03:38:03;102528.97;;;9.73;100.00
59951;BME280;45812;53.540;9.774;2023-05-25T03:40:28;102530.81;;;9.83;100.00
59951;BME280;45812;53.540;9.774;2023-05-25T03:42:53;102530.38;;;9.89;100.00
59951;BME280;45812;53.540;9.774;2023-05-25T03:45:18;102534.59;;;9.92;100.00
59951;BME280;45812;53.540;9.774;2023-05-25T03:47:44;102545.25;;;9.92;100.00
59951;BME280;45812;53.540;9.774;2023-05-25T03:50:09;102543.31;;;9.94;100.00
59951;BME280;45812;53.540;9.774;2023-05-25T03:52:35;102538.84;;;9.94;100.00
59951;BME280;45812;53.540;9.774;2023-05-25T03:55:00;102534.41;;;10.06;100.00
59951;BME280;45812;53.540;9.774;2023-05-25T03:57:26;102544.22;;;10.17;100.00
59951;BME280;45812;53.540;9.774;2023-05-25T03:59:52;102544.41;;;10.26;100.00
59951;BME280;45812;53.540;9.774;2023-05-25T04:02:17;102554.44;;;10.34;100.00
59951;BME280;45812;53.540;9.774;2023-05-25T04:04:42;102547.47;;;10.44;100.00
59951;BME280;45812;53.540;9.774;2023-05-25T04:07:09;102555.44;;;10.55;100.00
59951;BME280;45812;53.540;9.774;2023-05-25T04:09:34;102554.22;;;10.59;100.00
59951;BME280;45812;53.540;9.774;2023-05-25T04:11:59;102556.19;;;10.69;100.00
59951;BME280;45812;53.540;9.774;2023-05-25T04:14:26;102552.78;;;10.67;100.00
59951;BME280;45812;53.540;9.774;2023-05-25T04:16:51;102557.75;;;10.71;100.00
59951;BME280;45812;53.540;9.774;2023-05-25T04:19:17;102549.28;;;10.77;100.00
59951;BME280;45812;53.540;9.774;2023-05-25T04:21:42;102550.25;;;10.87;100.00
59951;BME280;45812;53.540;9.774;2023-05-25T04:24:07;102557.75;;;10.93;100.00
59951;BME280;45812;53.540;9.774;2023-05-25T04:26:33;102558.97;;;11.01;100.00
59951;BME280;45812;53.540;9.774;2023-05-25T04:28:58;102561.00;;;11.08;100.00
59951;BME280;45812;53.540;9.774;2023-05-25T04:31:26;102561.72;;;11.10;100.00
59951;BME280;45812;53.540;9.774;2023-05-25T04:33:51;102567.06;;;11.10;100.00
59951;BME280;45812;53.540;9.774;2023-05-25T04:36:16;102568.88;;;11.10;100.00
59951;BME280;45812;53.540;9.774;2023-05-25T04:38:42;102567.66;;;11.14;100.00
59951;BME280;45812;53.540;9.774;2023-05-25T04:41:11;102571.53;;;11.21;100.00
59951;BME280;45812;53.540;9.774;2023-05-25T04:43:38;102576.50;;;11.26;100.00
59951;BME280;45812;53.540;9.774;2023-05-25T04:46:03;102572.72;;;11.28;100.00
59951;BME280;45812;53.540;9.774;2023-05-25T04:48:29;102577.81;;;11.31;100.00
59951;BME280;45812;53.540;9.774;2023-05-25T04:50:56;102583.84;;;11.33;100.00
59951;BME280;45812;53.540;9.774;2023-05-25T04:53:22;102586.53;;;11.33;100.00
59951;BME280;45812;53.540;9.774;2023-05-25T04:55:47;102588.00;;;11.26;100.00
59951;BME280;45812;53.540;9.774;2023-05-25T04:58:13;102582.66;;;11.26;100.00
59951;BME280;45812;53.540;9.774;2023-05-25T05:00:39;102588.34;;;11.44;100.00
59951;BME280;45812;53.540;9.774;2023-05-25T05:03:04;102589.16;;;11.56;100.00
59951;BME280;45812;53.540;9.774;2023-05-25T05:05:30;102581.88;;;11.58;100.00
59951;BME280;45812;53.540;9.774;2023-05-25T05:07:55;102584.94;;;11.53;100.00
59951;BME280;45812;53.540;9.774;2023-05-25T05:10:22;102586.38;;;11.46;100.00
59951;BME280;45812;53.540;9.774;2023-05-25T05:12:47;102580.25;;;11.34;100.00
59951;BME280;45812;53.540;9.774;2023-05-25T05:15:12;102588.00;;;11.26;100.00
59951;BME280;45812;53.540;9.774;2023-05-25T05:17:37;102593.25;;;11.16;100.00
59951;BME280;45812;53.540;9.774;2023-05-25T05:20:03;102591.88;;;11.11;100.00
59951;BME280;45812;53.540;9.774;2023-05-25T05:22:31;102604.50;;;11.09;100.00
59951;BME280;45812;53.540;9.774;2023-05-25T05:24:57;102591.19;;;10.98;100.00
59951;BME280;45812;53.540;9.774;2023-05-25T05:27:22;102601.72;;;10.99;100.00
59951;BME280;45812;53.540;9.774;2023-05-25T05:29:48;102606.22;;;10.99;100.00
59951;BME280;45812;53.540;9.774;2023-05-25T05:32:13;102609.00;;;10.97;100.00
59951;BME280;45812;53.540;9.774;2023-05-25T05:34:38;102602.56;;;11.00;100.00
59951;BME280;45812;53.540;9.774;2023-05-25T05:37:04;102613.00;;;11.03;100.00
59951;BME280;45812;53.540;9.774;2023-05-25T05:39:29;102608.38;;;11.05;100.00
59951;BME280;45812;53.540;9.774;2023-05-25T05:41:55;102610.66;;;11.09;100.00
59951;BME280;45812;53.540;9.774;2023-05-25T05:44:20;102600.47;;;11.14;100.00
59951;BME280;45812;53.540;9.774;2023-05-25T05:46:46;102603.91;;;11.16;100.00
59951;BME280;45812;53.540;9.774;2023-05-25T05:49:11;102607.28;;;11.18;100.00
59951;BME280;45812;53.540;9.774;2023-05-25T05:51:37;102606.19;;;11.21;100.00
59951;BME280;45812;53.540;9.774;2023-05-25T05:54:02;102612.72;;;11.28;100.00
59951;BME280;45812;53.540;9.774;2023-05-25T05:56:28;102617.19;;;11.39;100.00
59951;BME280;45812;53.540;9.774;2023-05-25T05:58:53;102619.38;;;11.45;100.00
59951;BME280;45812;53.540;9.774;2023-05-25T06:01:18;102618.72;;;11.52;100.00
59951;BME280;45812;53.540;9.774;2023-05-25T06:03:44;102618.59;;;11.65;100.00
59951;BME280;45812;53.540;9.774;2023-05-25T06:06:09;102613.72;;;11.70;100.00
59951;BME280;45812;53.540;9.774;2023-05-25T06:08:35;102616.53;;;11.80;100.00
59951;BME280;45812;53.540;9.774;2023-05-25T06:11:00;102615.28;;;11.84;100.00
59951;BME280;45812;53.540;9.774;2023-05-25T06:13:25;102614.06;;;11.88;98.83
59951;BME280;45812;53.540;9.774;2023-05-25T06:15:51;102619.25;;;11.90;98.87
59951;BME280;45812;53.540;9.774;2023-05-25T06:18:16;102611.75;;;11.95;99.71
59951;BME280;45812;53.540;9.774;2023-05-25T06:20:41;102616.09;;;11.96;97.94
59951;BME280;45812;53.540;9.774;2023-05-25T06:23:06;102616.56;;;12.01;97.21
59951;BME280;45812;53.540;9.774;2023-05-25T06:25:35;102618.13;;;12.03;96.79
59951;BME280;45812;53.540;9.774;2023-05-25T06:28:00;102619.56;;;12.07;95.49
59951;BME280;45812;53.540;9.774;2023-05-25T06:30:25;102621.66;;;12.04;93.12
59951;BME280;45812;53.540;9.774;2023-05-25T06:32:51;102621.66;;;12.04;93.97
59951;BME280;45812;53.540;9.774;2023-05-25T06:35:16;102621.50;;;12.05;93.93
59951;BME280;45812;53.540;9.774;2023-05-25T06:37:47;102623.91;;;12.08;92.97
59951;BME280;45812;53.540;9.774;2023-05-25T06:40:13;102620.88;;;12.13;92.09
59951;BME280;45812;53.540;9.774;2023-05-25T06:42:38;102630.34;;;12.17;91.65
59951;BME280;45812;53.540;9.774;2023-05-25T06:45:04;102629.81;;;12.23;92.04
59951;BME280;45812;53.540;9.774;2023-05-25T06:47:30;102629.31;;;12.29;90.76
59951;BME280;45812;53.540;9.774;2023-05-25T06:49:55;102630.88;;;12.32;88.72
59951;BME280;45812;53.540;9.774;2023-05-25T06:52:21;102635.56;;;12.39;89.98
59951;BME280;45812;53.540;9.774;2023-05-25T06:54:46;102632.97;;;12.49;89.27
59951;BME280;45812;53.540;9.774;2023-05-25T06:57:11;102637.94;;;12.63;89.02
59951;BME280;45812;53.540;9.774;2023-05-25T06:59:36;102636.63;;;12.79;87.85
59951;BME280;45812;53.540;9.774;2023-05-25T07:02:02;102644.72;;;12.88;87.40
59951;BME280;45812;53.540;9.774;2023-05-25T07:04:27;102641.09;;;12.99;84.59
59951;BME280;45812;53.540;9.774;2023-05-25T07:06:52;102649.03;;;13.10;84.90
59951;BME280;45812;53.540;9.774;2023-05-25T07:09:18;102641.41;;;13.26;83.43
59951;BME280;45812;53.540;9.774;2023-05-25T07:11:43;102640.06;;;13.51;83.63
59951;BME280;45812;53.540;9.774;2023-05-25T07:14:08;102644.19;;;13.75;82.79
59951;BME280;45812;53.540;9.774;2023-05-25T07:16:34;102644.38;;;13.83;80.87
59951;BME280;45812;53.540;9.774;2023-05-25T07:18:59;102647.88;;;13.83;80.04
59951;BME280;45812;53.540;9.774;2023-05-25T07:21:24;102646.34;;;13.90;80.83
59951;BME280;45812;53.540;9.774;2023-05-25T07:23:50;102644.50;;;13.91;81.28
59951;BME280;45812;53.540;9.774;2023-05-25T07:26:15;102651.25;;;13.85;78.33
59951;BME280;45812;53.540;9.774;2023-05-25T07:28:40;102648.56;;;13.76;79.23
59951;BME280;45812;53.540;9.774;2023-05-25T07:31:06;102651.09;;;13.68;78.60
59951;BME280;45812;53.540;9.774;2023-05-25T07:33:32;102646.44;;;13.60;78.85
59951;BME280;45812;53.540;9.774;2023-05-25T07:35:57;102651.09;;;13.68;78.57
59951;BME280;45812;53.540;9.774;2023-05-25T07:38:22;102654.06;;;13.93;78.01
59951;BME280;45812;53.540;9.774;2023-05-25T07:40:47;102655.38;;;14.09;77.94
59951;BME280;45812;53.540;9.774;2023-05-25T07:43:13;102652.00;;;14.07;77.29
59951;BME280;45812;53.540;9.774;2023-05-25T07:45:39;102663.38;;;13.89;75.71
59951;BME280;45812;53.540;9.774;2023-05-25T07:48:04;102662.09;;;13.74;76.11
59951;BME280;45812;53.540;9.774;2023-05-25T07:50:31;102661.50;;;13.61;76.90
59951;BME280;45812;53.540;9.774;2023-05-25T07:52:56;102663.72;;;13.56;77.51
59951;BME280;45812;53.540;9.774;2023-05-25T07:55:24;102664.56;;;13.47;77.54
59951;BME280;45812;53.540;9.774;2023-05-25T07:57:50;102668.88;;;13.38;77.38
59951;BME280;45812;53.540;9.774;2023-05-25T08:00:15;102672.53;;;13.37;78.37
59951;BME280;45812;53.540;9.774;2023-05-25T08:02:41;102679.34;;;13.41;78.97
59951;BME280;45812;53.540;9.774;2023-05-25T08:05:06;102674.00;;;13.41;76.46
59951;BME280;45812;53.540;9.774;2023-05-25T08:07:33;102675.25;;;13.47;76.91
59951;BME280;45812;53.540;9.774;2023-05-25T08:09:58;102679.13;;;13.63;77.00
59951;BME280;45812;53.540;9.774;2023-05-25T08:12:24;102677.63;;;13.80;74.89
59951;BME280;45812;53.540;9.774;2023-05-25T08:14:49;102677.06;;;13.86;74.53
59951;BME280;45812;53.540;9.774;2023-05-25T08:17:15;102676.63;;;13.81;71.00
59951;BME280;45812;53.540;9.774;2023-05-25T08:19:40;102685.94;;;13.77;72.96
59951;BME280;45812;53.540;9.774;2023-05-25T08:22:05;102684.09;;;13.78;74.29
59951;BME280;45812;53.540;9.774;2023-05-25T08:24:30;102678.31;;;13.82;75.49
59951;BME280;45812;53.540;9.774;2023-05-25T08:26:56;102677.75;;;13.88;76.15
59951;BME280;45812;53.540;9.774;2023-05-25T08:29:21;102683.81;;;13.90;75.20
59951;BME280;45812;53.540;9.774;2023-05-25T08:31:46;102686.66;;;13.99;74.20
59951;BME280;45812;53.540;9.774;2023-05-25T08:34:14;102686.81;;;14.07;74.16
59951;BME280;45812;53.540;9.774;2023-05-25T08:36:39;102684.28;;;14.15;73.53
59951;BME280;45812;53.540;9.774;2023-05-25T08:39:04;102680.63;;;14.16;71.31
59951;BME280;45812;53.540;9.774;2023-05-25T08:41:36;102676.53;;;14.21;72.42
59951;BME280;45812;53.540;9.774;2023-05-25T08:44:04;102692.88;;;14.28;71.55
59951;BME280;45812;53.540;9.774;2023-05-25T08:46:32;102679.78;;;14.35;71.90
59951;BME280;45812;53.540;9.774;2023-05-25T08:49:02;102693.72;;;14.38;72.30
59951;BME280;45812;53.540;9.774;2023-05-25T08:51:28;102691.34;;;14.54;74.47
59951;BME280;45812;53.540;9.774;2023-05-25T08:54:04;102696.94;;;14.80;71.21
59951;BME280;45812;53.540;9.774;2023-05-25T08:56:33;102695.09;;;14.91;69.22
59951;BME280;45812;53.540;9.774;2023-05-25T08:59:24;102692.13;;;14.94;68.14
59951;BME280;45812;53.540;9.774;2023-05-25T09:01:55;102695.53;;;14.86;68.40
59951;BME280;45812;53.540;9.774;2023-05-25T09:04:21;102694.81;;;14.84;68.57
59951;BME280;45812;53.540;9.774;2023-05-25T09:06:47;102696.22;;;14.98;71.00
59951;BME280;45812;53.540;9.774;2023-05-25T09:09:12;102706.94;;;15.07;68.50
59951;BME280;45812;53.540;9.774;2023-05-25T09:11:38;102698.28;;;15.13;68.14
59951;BME280;45812;53.540;9.774;2023-05-25T09:14:05;102701.91;;;15.22;66.89
59951;BME280;45812;53.540;9.774;2023-05-25T09:16:31;102699.19;;;15.32;64.61
59951;BME280;45812;53.540;9.774;2023-05-25T09:18:57;102710.78;;;15.32;60.25
59951;BME280;45812;53.540;9.774;2023-05-25T09:21:24;102708.34;;;15.39;63.00
59951;BME280;45812;53.540;9.774;2023-05-25T09:23:49;102704.09;;;15.73;63.59
59951;BME280;45812;53.540;9.774;2023-05-25T09:26:15;102706.81;;;16.19;59.00
59951;BME280;45812;53.540;9.774;2023-05-25T09:28:47;102710.06;;;16.66;57.23
59951;BME280;45812;53.540;9.774;2023-05-25T09:31:14;102712.34;;;16.97;55.04
59951;BME280;45812;53.540;9.774;2023-05-25T09:33:39;102716.19;;;16.94;56.59
59951;BME280;45812;53.540;9.774;2023-05-25T09:36:05;102721.34;;;16.87;54.11
59951;BME280;45812;53.540;9.774;2023-05-25T09:38:31;102713.69;;;16.75;54.37
59951;BME280;45812;53.540;9.774;2023-05-25T09:40:57;102712.94;;;16.90;54.73
59951;BME280;45812;53.540;9.774;2023-05-25T09:43:22;102715.59;;;17.08;55.28
59951;BME280;45812;53.540;9.774;2023-05-25T09:45:47;102707.19;;;17.37;56.58
59951;BME280;45812;53.540;9.774;2023-05-25T09:48:13;102717.81;;;17.73;55.61
59951;BME280;45812;53.540;9.774;2023-05-25T09:50:38;102709.94;;;17.96;54.43
59951;BME280;45812;53.540;9.774;2023-05-25T09:53:03;102712.38;;;18.23;53.01
59951;BME280;45812;53.540;9.774;2023-05-25T09:55:29;102715.75;;;18.50;53.54
59951;BME280;45812;53.540;9.774;2023-05-25T09:57:55;102711.84;;;18.36;51.90
59951;BME280;45812;53.540;9.774;2023-05-25T10:00:22;102716.56;;;18.17;52.08
59951;BME280;45812;53.540;9.774;2023-05-25T10:02:48;102714.66;;;18.02;53.26
59951;BME280;45812;53.540;9.774;2023-05-25T10:05:13;102718.25;;;18.10;50.41
59951;BME280;45812;53.540;9.774;2023-05-25T10:07:38;102732.44;;;18.45;50.97
59951;BME280;45812;53.540;9.774;2023-05-25T10:10:05;102718.66;;;18.81;50.34
59951;BME280;45812;53.540;9.774;2023-05-25T10:12:32;102716.41;;;19.09;47.78
59951;BME280;45812;53.540;9.774;2023-05-25T10:15:02;102721.41;;;19.36;48.23
59951;BME280;45812;53.540;9.774;2023-05-25T10:17:30;102723.03;;;19.53;49.02
59951;BME280;45812;53.540;9.774;2023-05-25T10:19:59;102721.84;;;19.95;46.09
59951;BME280;45812;53.540;9.774;2023-05-25T10:22:35;102718.38;;;20.32;44.61
59951;BME280;45812;53.540;9.774;2023-05-25T10:25:15;102721.31;;;20.68;43.00
59951;BME280;45812;53.540;9.774;2023-05-25T10:27:56;102721.81;;;21.39;42.26
59951;BME280;45812;53.540;9.774;2023-05-25T10:30:24;102725.59;;;21.15;41.96
59951;BME280;45812;53.540;9.774;2023-05-25T10:32:51;102724.81;;;20.92;41.51
59951;BME280;45812;53.540;9.774;2023-05-25T10:35:16;102729.09;;;21.38;40.37
59951;BME280;45812;53.540;9.774;2023-05-25T10:37:43;102732.34;;;22.14;38.19
59951;BME280;45812;53.540;9.774;2023-05-25T10:40:09;102725.91;;;23.48;37.90
59951;BME280;45812;53.540;9.774;2023-05-25T10:42:36;102731.28;;;24.64;33.27
59951;BME280;45812;53.540;9.774;2023-05-25T10:45:06;102723.72;;;24.46;33.46
59951;BME280;45812;53.540;9.774;2023-05-25T10:47:34;102722.91;;;24.92;33.13
59951;BME280;45812;53.540;9.774;2023-05-25T10:50:00;102741.25;;;26.01;32.50
59951;BME280;45812;53.540;9.774;2023-05-25T10:52:28;102728.94;;;27.04;31.38
59951;BME280;45812;53.540;9.774;2023-05-25T10:55:00;102730.03;;;26.15;31.88
59951;BME280;45812;53.540;9.774;2023-05-25T10:57:28;102727.16;;;26.67;31.68
59951;BME280;45812;53.540;9.774;2023-05-25T10:59:59;102720.19;;;26.71;30.68
59951;BME280;45812;53.540;9.774;2023-05-25T11:02:28;102730.16;;;25.95;31.68
59951;BME280;45812;53.540;9.774;2023-05-25T11:07:52;102721.00;;;25.12;32.74
59951;BME280;45812;53.540;9.774;2023-05-25T11:13:31;102729.88;;;27.17;30.19
59951;BME280;45812;53.540;9.774;2023-05-25T11:16:14;102719.81;;;28.55;28.08
59951;BME280;45812;53.540;9.774;2023-05-25T11:21:15;102722.19;;;30.14;24.31
59951;BME280;45812;53.540;9.774;2023-05-25T11:23:53;102708.38;;;30.93;24.26
59951;BME280;45812;53.540;9.774;2023-05-25T11:26:28;102717.19;;;31.77;23.47
59951;BME280;45812;53.540;9.774;2023-05-25T11:28:54;102693.81;;;32.76;21.63
59951;BME280;45812;53.540;9.774;2023-05-25T11:31:31;102705.56;;;32.98;20.81
59951;BME280;45812;53.540;9.774;2023-05-25T11:33:57;102704.09;;;33.33;21.45
59951;BME280;45812;53.540;9.774;2023-05-25T11:36:25;102695.63;;;33.55;21.40
59951;BME280;45812;53.540;9.774;2023-05-25T11:38:51;102693.13;;;33.53;20.58
59951;BME280;45812;53.540;9.774;2023-05-25T11:41:20;102689.66;;;34.19;19.80
59951;BME280;45812;53.540;9.774;2023-05-25T11:43:49;102694.09;;;35.50;18.68
59951;BME280;45812;53.540;9.774;2023-05-25T11:46:16;102706.44;;;36.13;18.83
59951;BME280;45812;53.540;9.774;2023-05-25T11:48:45;102689.19;;;36.79;17.04
59951;BME280;45812;53.540;9.774;2023-05-25T11:51:13;102696.81;;;36.39;17.87
59951;BME280;45812;53.540;9.774;2023-05-25T11:53:43;102695.19;;;35.99;18.01
59951;BME280;45812;53.540;9.774;2023-05-25T11:56:09;102701.28;;;36.01;18.39
59951;BME280;45812;53.540;9.774;2023-05-25T11:58:35;102690.00;;;36.55;17.48
59951;BME280;45812;53.540;9.774;2023-05-25T12:01:17;102684.28;;;37.42;17.55
59951;BME280;45812;53.540;9.774;2023-05-25T12:03:47;102680.69;;;37.98;16.78
59951;BME280;45812;53.540;9.774;2023-05-25T12:06:29;102685.44;;;37.79;16.39
59951;BME280;45812;53.540;9.774;2023-05-25T12:08:55;102688.03;;;38.40;16.33
59951;BME280;45812;53.540;9.774;2023-05-25T12:11:31;102675.81;;;38.55;15.68
59951;BME280;45812;53.540;9.774;2023-05-25T12:13:57;102679.19;;;38.38;15.50
59951;BME280;45812;53.540;9.774;2023-05-25T12:16:23;102668.47;;;38.59;16.03
59951;BME280;45812;53.540;9.774;2023-05-25T12:18:50;102673.06;;;38.96;15.58
59951;BME280;45812;53.540;9.774;2023-05-25T12:21:16;102679.56;;;39.69;15.00
59951;BME280;45812;53.540;9.774;2023-05-25T12:23:41;102675.03;;;39.59;14.51
59951;BME280;45812;53.540;9.774;2023-05-25T12:26:17;102680.94;;;39.58;14.45
59951;BME280;45812;53.540;9.774;2023-05-25T12:29:04;102673.06;;;39.60;14.28
59951;BME280;45812;53.540;9.774;2023-05-25T12:31:31;102675.25;;;39.49;14.87
59951;BME280;45812;53.540;9.774;2023-05-25T12:36:43;102672.31;;;39.32;15.29
59951;BME280;45812;53.540;9.774;2023-05-25T12:39:10;102673.50;;;40.12;14.20
59951;BME280;45812;53.540;9.774;2023-05-25T12:41:49;102671.66;;;40.07;13.95
59951;BME280;45812;53.540;9.774;2023-05-25T12:44:26;102674.06;;;39.28;14.05
59951;BME280;45812;53.540;9.774;2023-05-25T12:46:55;102666.66;;;38.96;14.68
59951;BME280;45812;53.540;9.774;2023-05-25T12:49:28;102673.56;;;39.26;15.13
59951;BME280;45812;53.540;9.774;2023-05-25T12:51:54;102671.25;;;40.22;14.50
59951;BME280;45812;53.540;9.774;2023-05-25T12:57:05;102659.50;;;41.22;13.30
59951;BME280;45812;53.540;9.774;2023-05-25T12:59:31;102665.81;;;41.54;13.32
59951;BME280;45812;53.540;9.774;2023-05-25T13:01:57;102655.94;;;41.56;13.16